Historyczne dane pomiarowe

Dodano dane terminowe – wersja testowa.

Dane z okresu 1951-2019

Wersja bazy: 1.34 [2019-03-16, lista zmian], aktualizacja planowana na 2019-04-15

Dane meteo z obszaru Polski uzyskane na podstawie danych udostępnionych przez Instytut Meteorologii i Gospodarki Wodnej – Państwowy Instytut Badawczy.

 

Wybierz Datę:    

       

TemperaturaWilgotnośćWiatrCiśnienieOpadyŚniegCzas trwania zjawisk
 Stacja t tx tn tng RH VA  wxwx mslp ppp RRR   cm mm wxwxwxwxwxwxwx
1983-04-17 9.4 15.2 -0.2 -3.5 59.8- 6.0 3.7---- 0.0------------
1983-04-18 11.0 16.3 5.0 3.1 66.8- 6.3 3.0---- 0.0------------
1983-04-19 12.0 18.5 5.5 3.3 69.5- 5.0 2.7---- 0.0------------
1983-04-20 13.4 19.5 7.0 3.4 71.3- 4.3 3.3---- 0.0------------
1983-04-21 15.0 24.0 6.2 1.3 72.3- 5.7 3.0---- 0.0------------
1983-04-22 15.5 21.2 12.3 11.6 74.8- 7.3 2.3---- 1.2------------
1983-04-23 11.8 16.2 9.1 7.3 90.5- 7.3 1.3---- 1.5------------
1983-04-24 15.9 21.2 9.6 4.9 76.5- 6.0 1.7---- 1.5------------
1983-04-25 13.3 18.4 10.9 8.1 85.0- 6.0 0.7---- 0.0------------
1983-04-26 13.4 21.7 7.4 3.9 68.0- 6.0 1.7---- 0.0------------
1983-04-27 16.3 24.5 10.6 7.5 59.0- 5.7 3.0---- 6.2------------
1983-04-28 13.7 19.2 9.1 6.8 76.5- 6.3 0.7---- 0.0------------
1983-04-29 13.0 21.0 6.3 4.6 78.8- 7.3 2.0---- 7.5------------
1983-04-30 11.5 17.0 8.5 6.8 74.0- 4.0 1.0---- 0.0------------
1983-05-01 13.9 20.5 7.6 2.9 76.0- 6.3 1.7---- 6.3------------
1983-05-02 9.0 15.7 7.6 7.6 96.3- 8.0 5.0---- 28.0------------
1983-05-03 9.7 17.0 3.7 -0.9 89.0- 4.7 1.0---- 0.0------------
1983-05-04 9.8 15.5 3.2 -0.9 80.0- 4.7 1.3---- 5.3------------
1983-05-05 8.3 11.6 3.7 -0.2 86.8- 7.7 3.3---- 0.4------------
1983-05-06 6.0 8.6 4.0 3.3 96.0- 8.0 2.3---- 9.3------------
1983-05-07 8.5 15.4 0.8 0.5 84.8- 4.3 2.0---- 0.0------------
1983-05-08 8.4 12.6 5.7 3.7 93.3- 7.7 1.3---- 4.3------------
1983-05-09 9.7 14.6 8.1 7.5 93.3- 7.7 1.0---- 2.0------------
1983-05-10 11.8 17.2 4.6 1.6 83.3- 7.0 1.0---- 0.0------------
1983-05-11 12.7 15.3 7.6 3.9 78.8- 5.7 1.3---- 0.0------------
1983-05-12 15.4 21.5 8.9 7.7 69.0- 3.0 2.7---- 0.0------------
1983-05-13 16.2 21.7 9.2 5.3 79.0- 5.3 2.0---- 0.1------------
1983-05-14 15.0 20.0 10.6 7.8 90.0- 6.0 1.0---- 0.0------------
1983-05-15 19.8 27.3 13.4 9.6 69.8- 5.7 2.3---- 0.0------------
1983-05-16 23.6 30.2 18.5 13.6 63.5- 5.0 5.3---- 0.0------------
138.9 ms

 

Źródłem pochodzenia danych jest Instytut Meteorologii i Gospodarki Wodnej – Państwowy Instytut Badawczy. Dane Instytutu Meteorologii i Gospodarki Wodnej – Państwowego Instytutu Badawczego zostały przetworzone.

Dane źródłowe można odnaleźć na stronie https://dane.imgw.pl